createdAt,value
2022-09-07T00:04:15.874Z,18.09
2022-09-07T00:09:36.624Z,17.96
2022-09-07T00:14:57.850Z,17.86
2022-09-07T00:20:18.588Z,17.76
2022-09-07T00:25:40.889Z,17.76
2022-09-07T00:31:02.002Z,17.80
2022-09-07T00:36:23.695Z,17.81
2022-09-07T00:41:44.557Z,17.84
2022-09-07T00:47:34.735Z,17.76
2022-09-07T00:53:21.808Z,17.55
2022-09-07T00:58:43.996Z,17.65
2022-09-07T01:04:04.975Z,17.76
2022-09-07T01:09:27.625Z,17.69
2022-09-07T01:14:51.989Z,17.69
2022-09-07T01:20:49.575Z,17.83
2022-09-07T01:26:41.540Z,17.90
2022-09-07T01:32:20.252Z,17.85
2022-09-07T01:38:02.922Z,17.76
2022-09-07T01:43:50.215Z,17.82
2022-09-07T01:49:15.459Z,17.81
2022-09-07T01:54:46.704Z,17.76
2022-09-07T02:00:11.032Z,17.71
2022-09-07T02:05:46.090Z,17.81
2022-09-07T02:11:28.843Z,17.91
2022-09-07T02:17:03.480Z,17.87
2022-09-07T02:22:30.104Z,17.88
2022-09-07T02:27:57.358Z,17.93
2022-09-07T02:33:18.494Z,17.86
2022-09-07T02:38:39.826Z,17.85
2022-09-07T02:44:02.373Z,17.77
2022-09-07T02:49:47.190Z,17.74
2022-09-07T02:55:24.865Z,17.72
2022-09-07T03:00:53.522Z,17.68
2022-09-07T03:06:29.495Z,17.69
2022-09-07T03:11:50.845Z,17.61
2022-09-07T03:17:13.321Z,17.68
2022-09-07T03:22:34.946Z,17.63
2022-09-07T03:27:55.583Z,17.55
2022-09-07T03:33:17.176Z,17.50
2022-09-07T03:38:37.910Z,17.49
2022-09-07T03:44:05.683Z,17.41
2022-09-07T03:49:26.405Z,17.50
2022-09-07T03:54:47.359Z,17.47
2022-09-07T04:00:08.934Z,17.40
2022-09-07T04:05:35.784Z,17.39
2022-09-07T04:10:58.167Z,17.31
2022-09-07T04:16:20.175Z,17.36
2022-09-07T04:21:41.061Z,17.28
2022-09-07T04:27:02.418Z,17.20
2022-09-07T04:32:23.452Z,17.19
2022-09-07T04:37:45.523Z,17.19
2022-09-07T04:43:08.212Z,17.17
2022-09-07T04:48:28.905Z,17.16
2022-09-07T04:53:51.158Z,17.16
2022-09-07T04:59:12.186Z,17.13
2022-09-07T05:04:36.301Z,17.19
2022-09-07T05:09:57.379Z,17.24
2022-09-07T05:15:18.223Z,17.74
2022-09-07T05:20:38.685Z,17.87
2022-09-07T05:25:59.224Z,17.83
2022-09-07T05:31:22.015Z,17.79
2022-09-07T05:36:42.526Z,17.82
2022-09-07T05:42:03.708Z,17.90
2022-09-07T05:47:24.586Z,17.80
2022-09-07T05:52:46.148Z,18.01
2022-09-07T05:58:06.605Z,18.04
2022-09-07T06:03:28.057Z,18.07
2022-09-07T06:08:53.268Z,18.01
2022-09-07T06:14:13.941Z,18.08
2022-09-07T06:19:34.652Z,18.04
2022-09-07T06:24:55.193Z,18.22
2022-09-07T06:30:16.016Z,18.58
2022-09-07T06:35:36.736Z,18.70
2022-09-07T06:52:22.556Z,19.07
2022-09-07T06:57:43.363Z,19.34
2022-09-07T07:03:04.333Z,19.53
2022-09-07T07:08:25.793Z,19.56
2022-09-07T07:13:46.505Z,19.59
2022-09-07T07:19:07.058Z,19.69
2022-09-07T07:24:27.741Z,19.80
2022-09-07T07:29:48.420Z,20.00
2022-09-07T07:35:10.125Z,19.92
2022-09-07T07:40:31.877Z,19.90
2022-09-07T07:45:55.712Z,19.89
2022-09-07T07:51:16.592Z,19.87
2022-09-07T07:56:37.106Z,19.85
2022-09-07T08:01:57.835Z,19.91
2022-09-07T08:07:19.429Z,19.95
2022-09-07T08:12:40.151Z,20.02
2022-09-07T08:18:01.162Z,20.21
2022-09-07T08:23:21.876Z,20.34
2022-09-07T08:28:45.463Z,20.39
2022-09-07T08:34:07.719Z,20.52
2022-09-07T08:39:28.398Z,20.57
2022-09-07T08:45:06.814Z,20.69
2022-09-07T08:50:33.817Z,20.78
2022-09-07T08:55:58.439Z,20.90
2022-09-07T09:01:31.043Z,21.07
2022-09-07T09:07:22.845Z,21.23
2022-09-07T09:12:57.830Z,21.26
2022-09-07T09:18:36.673Z,21.29
2022-09-07T09:24:02.415Z,21.42
2022-09-07T09:29:24.030Z,21.55
2022-09-07T09:35:01.507Z,21.55
2022-09-07T09:40:31.290Z,21.56
2022-09-07T09:46:12.437Z,21.69
2022-09-07T10:09:20.352Z,22.26
2022-09-07T10:14:46.773Z,22.26
2022-09-07T10:20:15.772Z,22.33
2022-09-07T10:25:37.983Z,22.42
2022-09-07T10:31:17.708Z,22.51
2022-09-07T10:36:47.376Z,22.66
2022-09-07T10:42:29.009Z,22.92
2022-09-07T10:48:19.398Z,23.03
2022-09-07T11:00:08.763Z,22.90
2022-09-07T11:05:38.724Z,22.72
2022-09-07T11:11:11.746Z,22.72
2022-09-07T11:16:54.707Z,22.74
2022-09-07T11:22:32.738Z,22.78
2022-09-07T11:27:58.679Z,22.76
2022-09-07T11:33:23.251Z,22.80
2022-09-07T11:38:44.396Z,22.87
2022-09-07T11:44:18.867Z,23.09
2022-09-07T11:49:39.458Z,23.34
2022-09-07T11:55:06.045Z,23.39
2022-09-07T12:00:55.546Z,23.35
2022-09-07T12:06:22.598Z,23.17
2022-09-07T12:12:09.514Z,23.11
2022-09-07T12:17:51.271Z,23.21
2022-09-07T12:23:15.325Z,23.25
2022-09-07T12:28:36.447Z,23.21
2022-09-07T12:34:31.494Z,23.18
2022-09-07T12:40:27.235Z,23.19
2022-09-07T12:45:51.886Z,23.27
2022-09-07T12:57:32.673Z,23.25
2022-09-07T13:09:36.803Z,23.59
2022-09-07T13:15:00.654Z,23.58
2022-09-07T13:20:30.138Z,23.58
2022-09-07T13:25:54.299Z,23.60
2022-09-07T13:31:43.798Z,23.58
2022-09-07T13:37:06.583Z,23.59
2022-09-07T13:42:33.602Z,23.69
2022-09-07T13:48:20.570Z,23.80
2022-09-07T13:54:01.672Z,23.83
2022-09-07T13:59:23.834Z,23.84
2022-09-07T14:04:51.327Z,23.80
2022-09-07T14:10:19.609Z,23.83
2022-09-07T14:15:50.943Z,23.86
2022-09-07T14:21:19.019Z,23.82
2022-09-07T14:26:46.865Z,23.76
2022-09-07T14:32:14.978Z,23.73
2022-09-07T14:37:36.848Z,23.67
2022-09-07T14:42:58.561Z,23.65
2022-09-07T14:48:29.230Z,23.66
2022-09-07T14:54:02.447Z,23.58
2022-09-07T14:59:33.621Z,23.57
2022-09-07T15:05:17.906Z,23.62
2022-09-07T15:10:41.300Z,23.59
2022-09-07T15:16:05.575Z,23.57
2022-09-07T15:21:29.858Z,23.58
2022-09-07T15:27:09.280Z,23.53
2022-09-07T15:32:29.819Z,23.62
2022-09-07T15:38:58.917Z,23.61
2022-09-07T15:43:31.393Z,23.66
2022-09-07T15:48:55.384Z,23.67
2022-09-07T15:54:16.772Z,23.60
2022-09-07T15:59:37.912Z,23.57
2022-09-07T16:04:58.969Z,23.55
2022-09-07T16:10:20.530Z,23.51
2022-09-07T16:15:46.189Z,23.42
2022-09-07T16:21:12.643Z,23.32
2022-09-07T16:26:33.683Z,23.27
2022-09-07T16:37:36.015Z,23.36
2022-09-07T16:42:57.278Z,23.28
2022-09-07T16:48:18.010Z,23.11
2022-09-07T16:53:39.719Z,22.98
2022-09-07T16:59:03.180Z,22.90
2022-09-07T17:04:24.512Z,22.83
2022-09-07T17:09:46.298Z,22.74
2022-09-07T17:15:08.406Z,22.71
2022-09-07T17:20:29.322Z,22.73
2022-09-07T17:25:49.995Z,22.76
2022-09-07T17:37:01.188Z,22.60
2022-09-07T17:42:24.600Z,22.51
2022-09-07T17:47:45.617Z,22.47
2022-09-07T17:53:06.309Z,22.36
2022-09-07T17:58:27.232Z,22.22
2022-09-07T18:03:48.127Z,22.12
2022-09-07T18:09:08.862Z,22.04
2022-09-07T18:14:30.211Z,22.05
2022-09-07T18:19:51.174Z,21.93
2022-09-07T18:25:11.885Z,21.85
2022-09-07T18:30:39.851Z,21.72
2022-09-07T18:36:01.459Z,21.68
2022-09-07T18:41:22.156Z,21.62
2022-09-07T18:46:42.844Z,21.50
2022-09-07T18:57:45.101Z,21.26
2022-09-07T19:03:05.900Z,21.15
2022-09-07T19:08:29.922Z,21.09
2022-09-07T19:14:04.133Z,21.01
2022-09-07T19:19:26.585Z,20.99
2022-09-07T19:24:47.202Z,20.86
2022-09-07T19:30:08.547Z,20.78
2022-09-07T19:35:30.142Z,20.69
2022-09-07T19:40:58.584Z,20.70
2022-09-07T19:46:24.668Z,20.58
2022-09-07T19:51:46.080Z,20.58
2022-09-07T19:57:06.864Z,20.53
2022-09-07T20:02:27.957Z,20.41
2022-09-07T20:07:49.817Z,20.37
2022-09-07T20:13:10.605Z,20.40
2022-09-07T20:18:31.357Z,20.39
2022-09-07T20:23:52.532Z,20.41
2022-09-07T20:29:27.406Z,20.28
2022-09-07T20:34:50.597Z,20.17
2022-09-07T20:40:11.421Z,20.15
2022-09-07T20:45:35.247Z,20.04
2022-09-07T20:51:00.785Z,19.97
2022-09-07T20:56:24.560Z,19.94
2022-09-07T21:01:46.744Z,19.97
2022-09-07T21:07:07.284Z,19.99
2022-09-07T21:12:27.881Z,19.95
2022-09-07T21:17:48.495Z,19.92
2022-09-07T21:23:10.143Z,19.89
2022-09-07T21:28:31.264Z,19.71
2022-09-07T21:33:56.966Z,19.63
2022-09-07T21:39:18.765Z,19.53
2022-09-07T21:44:39.130Z,19.48
2022-09-07T21:49:59.733Z,19.41
2022-09-07T21:55:20.402Z,19.41
2022-09-07T22:00:41.026Z,19.39
2022-09-07T22:06:02.987Z,19.35
2022-09-07T22:11:25.729Z,19.35
2022-09-07T22:16:46.429Z,19.35
2022-09-07T22:22:07.262Z,19.23
2022-09-07T22:27:27.947Z,19.15
2022-09-07T22:32:52.270Z,19.14
2022-09-07T22:38:13.107Z,19.12
2022-09-07T22:43:34.517Z,19.07
2022-09-07T22:48:57.343Z,19.06
2022-09-07T22:54:18.294Z,19.02
2022-09-07T22:59:38.874Z,18.98
2022-09-07T23:04:59.504Z,18.95
2022-09-07T23:10:20.009Z,18.99
2022-09-07T23:15:40.661Z,19.04
2022-09-07T23:21:02.253Z,19.05
2022-09-07T23:26:25.124Z,18.99
2022-09-07T23:31:46.619Z,18.85
2022-09-07T23:37:07.356Z,18.78
2022-09-07T23:42:27.855Z,18.77
2022-09-07T23:47:48.446Z,18.75
2022-09-07T23:53:09.429Z,18.82
2022-09-07T23:58:30.374Z,18.93
